sensor_id;sensor_type;location;lat;lon;timestamp;P1;durP1;ratioP1;P2;durP2;ratioP2
1837;SDS011;918;50.796;6.772;2024-03-22T00:01:01;12.43;;;11.23;;
1837;SDS011;918;50.796;6.772;2024-03-22T00:03:26;10.63;;;9.47;;
1837;SDS011;918;50.796;6.772;2024-03-22T00:05:51;11.10;;;9.90;;
1837;SDS011;918;50.796;6.772;2024-03-22T00:08:17;10.60;;;9.23;;
1837;SDS011;918;50.796;6.772;2024-03-22T00:10:42;9.93;;;8.90;;
1837;SDS011;918;50.796;6.772;2024-03-22T00:13:07;11.40;;;9.93;;
1837;SDS011;918;50.796;6.772;2024-03-22T00:15:32;9.73;;;8.70;;
1837;SDS011;918;50.796;6.772;2024-03-22T00:17:57;11.03;;;8.57;;
1837;SDS011;918;50.796;6.772;2024-03-22T00:20:23;13.43;;;10.40;;
1837;SDS011;918;50.796;6.772;2024-03-22T00:22:48;10.57;;;9.33;;
1837;SDS011;918;50.796;6.772;2024-03-22T00:25:13;10.43;;;8.03;;
1837;SDS011;918;50.796;6.772;2024-03-22T00:27:39;12.13;;;10.13;;
1837;SDS011;918;50.796;6.772;2024-03-22T00:30:04;10.60;;;8.47;;
1837;SDS011;918;50.796;6.772;2024-03-22T00:32:30;12.07;;;9.53;;
1837;SDS011;918;50.796;6.772;2024-03-22T00:34:55;11.30;;;9.93;;
1837;SDS011;918;50.796;6.772;2024-03-22T00:37:20;11.23;;;9.70;;
1837;SDS011;918;50.796;6.772;2024-03-22T00:39:46;11.53;;;9.67;;
1837;SDS011;918;50.796;6.772;2024-03-22T00:42:11;10.20;;;9.17;;
1837;SDS011;918;50.796;6.772;2024-03-22T00:44:36;10.77;;;9.63;;
1837;SDS011;918;50.796;6.772;2024-03-22T00:47:02;11.83;;;10.63;;
1837;SDS011;918;50.796;6.772;2024-03-22T00:49:28;10.40;;;9.30;;
1837;SDS011;918;50.796;6.772;2024-03-22T00:51:53;12.13;;;10.37;;
1837;SDS011;918;50.796;6.772;2024-03-22T00:54:21;10.90;;;9.80;;
1837;SDS011;918;50.796;6.772;2024-03-22T00:56:46;11.50;;;10.30;;
1837;SDS011;918;50.796;6.772;2024-03-22T00:59:12;11.83;;;10.63;;
1837;SDS011;918;50.796;6.772;2024-03-22T01:01:37;12.10;;;9.83;;
1837;SDS011;918;50.796;6.772;2024-03-22T01:04:03;12.80;;;11.00;;
1837;SDS011;918;50.796;6.772;2024-03-22T01:06:28;11.20;;;9.70;;
1837;SDS011;918;50.796;6.772;2024-03-22T01:08:54;11.43;;;10.27;;
1837;SDS011;918;50.796;6.772;2024-03-22T01:11:19;12.07;;;10.50;;
1837;SDS011;918;50.796;6.772;2024-03-22T01:13:45;11.33;;;10.13;;
1837;SDS011;918;50.796;6.772;2024-03-22T01:16:10;11.73;;;9.67;;
1837;SDS011;918;50.796;6.772;2024-03-22T01:18:36;12.43;;;9.80;;
1837;SDS011;918;50.796;6.772;2024-03-22T01:21:02;12.20;;;10.97;;
1837;SDS011;918;50.796;6.772;2024-03-22T01:23:27;9.40;;;8.50;;
1837;SDS011;918;50.796;6.772;2024-03-22T01:25:52;12.70;;;9.53;;
1837;SDS011;918;50.796;6.772;2024-03-22T01:28:18;11.97;;;10.77;;
1837;SDS011;918;50.796;6.772;2024-03-22T01:30:43;11.70;;;9.33;;
1837;SDS011;918;50.796;6.772;2024-03-22T01:33:09;10.70;;;8.67;;
1837;SDS011;918;50.796;6.772;2024-03-22T01:35:34;10.73;;;9.27;;
1837;SDS011;918;50.796;6.772;2024-03-22T01:37:59;10.47;;;8.97;;
1837;SDS011;918;50.796;6.772;2024-03-22T01:40:24;11.30;;;10.17;;
1837;SDS011;918;50.796;6.772;2024-03-22T01:42:52;11.57;;;10.30;;
1837;SDS011;918;50.796;6.772;2024-03-22T01:45:18;11.67;;;9.43;;
1837;SDS011;918;50.796;6.772;2024-03-22T01:47:45;10.50;;;9.40;;
1837;SDS011;918;50.796;6.772;2024-03-22T01:50:10;11.50;;;9.70;;
1837;SDS011;918;50.796;6.772;2024-03-22T01:52:36;11.77;;;9.87;;
1837;SDS011;918;50.796;6.772;2024-03-22T01:55:02;11.10;;;10.00;;
1837;SDS011;918;50.796;6.772;2024-03-22T01:57:29;11.30;;;10.10;;
1837;SDS011;918;50.796;6.772;2024-03-22T01:59:55;11.20;;;9.77;;
1837;SDS011;918;50.796;6.772;2024-03-22T02:02:20;10.73;;;9.63;;
1837;SDS011;918;50.796;6.772;2024-03-22T02:04:46;10.47;;;8.43;;
1837;SDS011;918;50.796;6.772;2024-03-22T02:07:11;10.13;;;9.00;;
1837;SDS011;918;50.796;6.772;2024-03-22T02:09:36;13.13;;;10.27;;
1837;SDS011;918;50.796;6.772;2024-03-22T02:12:02;9.20;;;8.20;;
1837;SDS011;918;50.796;6.772;2024-03-22T02:14:27;10.20;;;9.20;;
1837;SDS011;918;50.796;6.772;2024-03-22T02:16:53;10.40;;;9.40;;
1837;SDS011;918;50.796;6.772;2024-03-22T02:19:18;12.23;;;9.93;;
1837;SDS011;918;50.796;6.772;2024-03-22T02:21:43;11.37;;;9.40;;
1837;SDS011;918;50.796;6.772;2024-03-22T02:24:09;10.63;;;9.53;;
1837;SDS011;918;50.796;6.772;2024-03-22T02:26:34;9.80;;;8.90;;
1837;SDS011;918;50.796;6.772;2024-03-22T02:28:59;11.13;;;9.63;;
1837;SDS011;918;50.796;6.772;2024-03-22T02:31:24;10.17;;;9.07;;
1837;SDS011;918;50.796;6.772;2024-03-22T02:33:52;10.03;;;9.13;;
1837;SDS011;918;50.796;6.772;2024-03-22T02:36:17;9.63;;;8.60;;
1837;SDS011;918;50.796;6.772;2024-03-22T02:38:42;10.80;;;8.90;;
1837;SDS011;918;50.796;6.772;2024-03-22T02:41:07;10.80;;;8.97;;
1837;SDS011;918;50.796;6.772;2024-03-22T02:43:33;9.30;;;8.40;;
1837;SDS011;918;50.796;6.772;2024-03-22T02:45:58;9.20;;;8.40;;
1837;SDS011;918;50.796;6.772;2024-03-22T02:48:23;8.90;;;8.10;;
1837;SDS011;918;50.796;6.772;2024-03-22T02:50:48;11.90;;;10.17;;
1837;SDS011;918;50.796;6.772;2024-03-22T02:53:14;9.40;;;8.50;;
1837;SDS011;918;50.796;6.772;2024-03-22T02:55:40;10.13;;;9.10;;
1837;SDS011;918;50.796;6.772;2024-03-22T02:58:08;8.93;;;8.13;;
1837;SDS011;918;50.796;6.772;2024-03-22T03:00:37;9.63;;;8.73;;
1837;SDS011;918;50.796;6.772;2024-03-22T03:03:06;9.90;;;8.90;;
1837;SDS011;918;50.796;6.772;2024-03-22T03:05:31;9.10;;;8.13;;
1837;SDS011;918;50.796;6.772;2024-03-22T03:07:57;8.80;;;8.00;;
1837;SDS011;918;50.796;6.772;2024-03-22T03:10:22;8.77;;;7.47;;
1837;SDS011;918;50.796;6.772;2024-03-22T03:12:47;8.63;;;7.60;;
1837;SDS011;918;50.796;6.772;2024-03-22T03:15:13;10.53;;;9.40;;
1837;SDS011;918;50.796;6.772;2024-03-22T03:17:38;9.10;;;7.93;;
1837;SDS011;918;50.796;6.772;2024-03-22T03:20:04;10.43;;;7.90;;
1837;SDS011;918;50.796;6.772;2024-03-22T03:22:33;9.23;;;8.30;;
1837;SDS011;918;50.796;6.772;2024-03-22T03:24:59;9.93;;;9.00;;
1837;SDS011;918;50.796;6.772;2024-03-22T03:27:24;8.80;;;8.00;;
1837;SDS011;918;50.796;6.772;2024-03-22T03:29:49;9.70;;;8.70;;
1837;SDS011;918;50.796;6.772;2024-03-22T03:32:15;8.57;;;7.77;;
1837;SDS011;918;50.796;6.772;2024-03-22T03:34:40;11.70;;;9.33;;
1837;SDS011;918;50.796;6.772;2024-03-22T03:37:05;8.73;;;7.73;;
1837;SDS011;918;50.796;6.772;2024-03-22T03:39:31;10.23;;;9.30;;
1837;SDS011;918;50.796;6.772;2024-03-22T03:41:56;12.03;;;10.80;;
1837;SDS011;918;50.796;6.772;2024-03-22T03:44:21;10.87;;;9.77;;
1837;SDS011;918;50.796;6.772;2024-03-22T03:46:47;10.83;;;9.23;;
1837;SDS011;918;50.796;6.772;2024-03-22T03:49:12;10.33;;;9.23;;
1837;SDS011;918;50.796;6.772;2024-03-22T03:51:37;10.83;;;9.37;;
1837;SDS011;918;50.796;6.772;2024-03-22T03:54:03;11.50;;;10.37;;
1837;SDS011;918;50.796;6.772;2024-03-22T03:56:28;11.30;;;9.90;;
1837;SDS011;918;50.796;6.772;2024-03-22T03:58:53;9.83;;;9.03;;
1837;SDS011;918;50.796;6.772;2024-03-22T04:01:19;10.47;;;9.57;;
1837;SDS011;918;50.796;6.772;2024-03-22T04:03:44;12.13;;;11.03;;
1837;SDS011;918;50.796;6.772;2024-03-22T04:06:10;11.87;;;10.70;;
1837;SDS011;918;50.796;6.772;2024-03-22T04:08:35;11.67;;;10.47;;
1837;SDS011;918;50.796;6.772;2024-03-22T04:11:00;11.10;;;10.00;;
1837;SDS011;918;50.796;6.772;2024-03-22T04:13:26;11.17;;;10.17;;
1837;SDS011;918;50.796;6.772;2024-03-22T04:15:52;11.20;;;10.10;;
1837;SDS011;918;50.796;6.772;2024-03-22T04:18:17;13.20;;;10.50;;
1837;SDS011;918;50.796;6.772;2024-03-22T04:20:42;13.67;;;11.37;;
1837;SDS011;918;50.796;6.772;2024-03-22T04:23:09;13.77;;;12.10;;
1837;SDS011;918;50.796;6.772;2024-03-22T04:25:34;11.23;;;10.03;;
1837;SDS011;918;50.796;6.772;2024-03-22T04:27:59;12.57;;;11.33;;
1837;SDS011;918;50.796;6.772;2024-03-22T04:30:25;13.23;;;11.87;;
1837;SDS011;918;50.796;6.772;2024-03-22T04:32:50;12.10;;;11.00;;
1837;SDS011;918;50.796;6.772;2024-03-22T04:35:16;12.73;;;11.40;;
1837;SDS011;918;50.796;6.772;2024-03-22T04:37:41;12.83;;;11.30;;
1837;SDS011;918;50.796;6.772;2024-03-22T04:40:06;10.97;;;10.07;;
1837;SDS011;918;50.796;6.772;2024-03-22T04:42:33;12.17;;;10.50;;
1837;SDS011;918;50.796;6.772;2024-03-22T04:44:58;11.87;;;10.20;;
1837;SDS011;918;50.796;6.772;2024-03-22T04:47:24;12.83;;;11.37;;
1837;SDS011;918;50.796;6.772;2024-03-22T04:49:49;11.83;;;10.67;;
1837;SDS011;918;50.796;6.772;2024-03-22T04:52:14;12.43;;;11.13;;
1837;SDS011;918;50.796;6.772;2024-03-22T04:54:40;11.40;;;10.30;;
1837;SDS011;918;50.796;6.772;2024-03-22T04:57:05;11.87;;;10.77;;
1837;SDS011;918;50.796;6.772;2024-03-22T04:59:30;13.13;;;11.80;;
1837;SDS011;918;50.796;6.772;2024-03-22T05:01:56;13.03;;;11.93;;
1837;SDS011;918;50.796;6.772;2024-03-22T05:04:21;16.07;;;12.00;;
1837;SDS011;918;50.796;6.772;2024-03-22T05:06:46;11.90;;;10.40;;
1837;SDS011;918;50.796;6.772;2024-03-22T05:09:11;14.00;;;12.60;;
1837;SDS011;918;50.796;6.772;2024-03-22T05:11:37;12.17;;;10.97;;
1837;SDS011;918;50.796;6.772;2024-03-22T05:14:02;11.77;;;10.63;;
1837;SDS011;918;50.796;6.772;2024-03-22T05:16:28;12.07;;;10.87;;
1837;SDS011;918;50.796;6.772;2024-03-22T05:18:53;11.90;;;10.80;;
1837;SDS011;918;50.796;6.772;2024-03-22T05:21:19;13.47;;;12.27;;
1837;SDS011;918;50.796;6.772;2024-03-22T05:23:44;12.30;;;11.07;;
1837;SDS011;918;50.796;6.772;2024-03-22T05:26:09;12.47;;;11.17;;
1837;SDS011;918;50.796;6.772;2024-03-22T05:28:35;12.20;;;11.03;;
1837;SDS011;918;50.796;6.772;2024-03-22T05:31:00;11.93;;;10.83;;
1837;SDS011;918;50.796;6.772;2024-03-22T05:33:25;12.63;;;11.37;;
1837;SDS011;918;50.796;6.772;2024-03-22T05:35:51;14.70;;;12.40;;
1837;SDS011;918;50.796;6.772;2024-03-22T05:38:16;12.20;;;11.10;;
1837;SDS011;918;50.796;6.772;2024-03-22T05:40:41;12.53;;;11.33;;
1837;SDS011;918;50.796;6.772;2024-03-22T05:43:06;12.97;;;11.20;;
1837;SDS011;918;50.796;6.772;2024-03-22T05:45:31;14.47;;;13.17;;
1837;SDS011;918;50.796;6.772;2024-03-22T05:47:57;14.80;;;13.27;;
1837;SDS011;918;50.796;6.772;2024-03-22T05:50:22;14.73;;;13.20;;
1837;SDS011;918;50.796;6.772;2024-03-22T05:52:47;14.37;;;12.93;;
1837;SDS011;918;50.796;6.772;2024-03-22T05:55:13;16.73;;;14.93;;
1837;SDS011;918;50.796;6.772;2024-03-22T05:57:38;18.13;;;16.33;;
1837;SDS011;918;50.796;6.772;2024-03-22T06:00:04;16.77;;;15.00;;
1837;SDS011;918;50.796;6.772;2024-03-22T06:02:31;15.77;;;14.20;;
1837;SDS011;918;50.796;6.772;2024-03-22T06:04:57;18.13;;;15.20;;
1837;SDS011;918;50.796;6.772;2024-03-22T06:07:23;17.30;;;15.70;;
1837;SDS011;918;50.796;6.772;2024-03-22T06:09:48;17.00;;;15.20;;
1837;SDS011;918;50.796;6.772;2024-03-22T06:12:14;20.47;;;16.47;;
1837;SDS011;918;50.796;6.772;2024-03-22T06:14:41;18.30;;;16.47;;
1837;SDS011;918;50.796;6.772;2024-03-22T06:17:07;22.13;;;17.47;;
1837;SDS011;918;50.796;6.772;2024-03-22T06:19:33;19.07;;;17.13;;
1837;SDS011;918;50.796;6.772;2024-03-22T06:21:58;17.93;;;16.03;;
1837;SDS011;918;50.796;6.772;2024-03-22T06:24:23;17.90;;;16.00;;
1837;SDS011;918;50.796;6.772;2024-03-22T06:26:49;18.93;;;16.37;;
1837;SDS011;918;50.796;6.772;2024-03-22T06:29:14;17.63;;;15.73;;
1837;SDS011;918;50.796;6.772;2024-03-22T06:31:41;20.60;;;16.73;;
1837;SDS011;918;50.796;6.772;2024-03-22T06:34:06;16.70;;;14.90;;
1837;SDS011;918;50.796;6.772;2024-03-22T06:36:32;16.40;;;14.90;;
1837;SDS011;918;50.796;6.772;2024-03-22T06:38:57;15.60;;;14.10;;
1837;SDS011;918;50.796;6.772;2024-03-22T06:41:24;15.40;;;12.97;;
1837;SDS011;918;50.796;6.772;2024-03-22T06:43:49;16.20;;;14.57;;
1837;SDS011;918;50.796;6.772;2024-03-22T06:46:14;17.33;;;15.63;;
1837;SDS011;918;50.796;6.772;2024-03-22T06:48:40;16.07;;;14.53;;
1837;SDS011;918;50.796;6.772;2024-03-22T06:51:05;18.67;;;13.77;;
1837;SDS011;918;50.796;6.772;2024-03-22T06:53:30;16.07;;;14.47;;
1837;SDS011;918;50.796;6.772;2024-03-22T06:55:56;16.70;;;14.97;;
1837;SDS011;918;50.796;6.772;2024-03-22T06:58:21;17.03;;;14.87;;
1837;SDS011;918;50.796;6.772;2024-03-22T07:00:46;17.00;;;14.70;;
1837;SDS011;918;50.796;6.772;2024-03-22T07:03:12;16.77;;;14.67;;
1837;SDS011;918;50.796;6.772;2024-03-22T07:05:37;15.33;;;13.83;;
1837;SDS011;918;50.796;6.772;2024-03-22T07:08:02;15.97;;;13.90;;
1837;SDS011;918;50.796;6.772;2024-03-22T07:10:28;12.60;;;11.47;;
1837;SDS011;918;50.796;6.772;2024-03-22T07:12:54;12.80;;;11.57;;
1837;SDS011;918;50.796;6.772;2024-03-22T07:15:20;14.87;;;13.57;;
1837;SDS011;918;50.796;6.772;2024-03-22T07:17:49;12.47;;;11.33;;
1837;SDS011;918;50.796;6.772;2024-03-22T07:20:15;11.73;;;10.53;;
1837;SDS011;918;50.796;6.772;2024-03-22T07:22:41;12.60;;;11.30;;
1837;SDS011;918;50.796;6.772;2024-03-22T07:25:06;13.23;;;11.47;;
1837;SDS011;918;50.796;6.772;2024-03-22T07:27:34;11.97;;;10.90;;
1837;SDS011;918;50.796;6.772;2024-03-22T07:29:59;11.67;;;9.53;;
1837;SDS011;918;50.796;6.772;2024-03-22T07:32:25;13.20;;;10.80;;
1837;SDS011;918;50.796;6.772;2024-03-22T07:34:50;12.07;;;10.47;;
1837;SDS011;918;50.796;6.772;2024-03-22T07:37:16;14.23;;;11.13;;
1837;SDS011;918;50.796;6.772;2024-03-22T07:39:41;11.90;;;10.70;;
1837;SDS011;918;50.796;6.772;2024-03-22T07:42:06;11.63;;;10.57;;
1837;SDS011;918;50.796;6.772;2024-03-22T07:44:31;10.93;;;9.83;;
1837;SDS011;918;50.796;6.772;2024-03-22T07:46:57;11.40;;;10.30;;
1837;SDS011;918;50.796;6.772;2024-03-22T07:49:22;10.50;;;9.60;;
1837;SDS011;918;50.796;6.772;2024-03-22T07:51:47;11.53;;;10.03;;
1837;SDS011;918;50.796;6.772;2024-03-22T07:54:12;10.40;;;9.30;;
1837;SDS011;918;50.796;6.772;2024-03-22T07:56:38;12.20;;;11.07;;
1837;SDS011;918;50.796;6.772;2024-03-22T07:59:03;11.83;;;10.63;;
1837;SDS011;918;50.796;6.772;2024-03-22T08:01:29;11.40;;;10.30;;
1837;SDS011;918;50.796;6.772;2024-03-22T08:03:55;12.10;;;11.00;;
1837;SDS011;918;50.796;6.772;2024-03-22T08:06:20;12.87;;;11.23;;
1837;SDS011;918;50.796;6.772;2024-03-22T08:08:45;12.60;;;11.37;;
1837;SDS011;918;50.796;6.772;2024-03-22T08:11:10;12.40;;;11.20;;
1837;SDS011;918;50.796;6.772;2024-03-22T08:13:36;14.33;;;12.83;;
1837;SDS011;918;50.796;6.772;2024-03-22T08:16:01;12.90;;;11.70;;
1837;SDS011;918;50.796;6.772;2024-03-22T08:18:27;13.13;;;11.87;;
1837;SDS011;918;50.796;6.772;2024-03-22T08:20:52;14.73;;;12.20;;
1837;SDS011;918;50.796;6.772;2024-03-22T08:23:17;13.97;;;12.67;;
1837;SDS011;918;50.796;6.772;2024-03-22T08:25:45;14.00;;;12.57;;
1837;SDS011;918;50.796;6.772;2024-03-22T08:28:10;15.73;;;14.07;;
1837;SDS011;918;50.796;6.772;2024-03-22T08:30:37;14.90;;;13.60;;
1837;SDS011;918;50.796;6.772;2024-03-22T08:33:02;16.10;;;13.60;;
1837;SDS011;918;50.796;6.772;2024-03-22T08:35:28;16.70;;;15.10;;
1837;SDS011;918;50.796;6.772;2024-03-22T08:37:54;16.80;;;14.73;;
1837;SDS011;918;50.796;6.772;2024-03-22T08:40:19;15.70;;;14.20;;
1837;SDS011;918;50.796;6.772;2024-03-22T08:42:44;15.70;;;14.27;;
1837;SDS011;918;50.796;6.772;2024-03-22T08:45:10;16.17;;;13.53;;
1837;SDS011;918;50.796;6.772;2024-03-22T08:47:35;15.83;;;14.23;;
1837;SDS011;918;50.796;6.772;2024-03-22T08:50:00;17.07;;;14.97;;
1837;SDS011;918;50.796;6.772;2024-03-22T08:52:26;17.80;;;14.70;;
1837;SDS011;918;50.796;6.772;2024-03-22T08:54:54;18.10;;;16.20;;
1837;SDS011;918;50.796;6.772;2024-03-22T08:57:19;16.90;;;15.40;;
1837;SDS011;918;50.796;6.772;2024-03-22T08:59:45;17.83;;;16.10;;
1837;SDS011;918;50.796;6.772;2024-03-22T09:02:10;16.70;;;15.13;;
1837;SDS011;918;50.796;6.772;2024-03-22T09:04:36;17.30;;;15.70;;
1837;SDS011;918;50.796;6.772;2024-03-22T09:07:02;16.97;;;15.40;;
1837;SDS011;918;50.796;6.772;2024-03-22T09:09:27;16.53;;;15.00;;
1837;SDS011;918;50.796;6.772;2024-03-22T09:11:52;20.30;;;16.73;;
1837;SDS011;918;50.796;6.772;2024-03-22T09:14:18;18.80;;;17.10;;
1837;SDS011;918;50.796;6.772;2024-03-22T09:16:43;16.57;;;15.17;;
1837;SDS011;918;50.796;6.772;2024-03-22T09:19:08;16.97;;;15.30;;
1837;SDS011;918;50.796;6.772;2024-03-22T09:21:35;17.37;;;15.77;;
1837;SDS011;918;50.796;6.772;2024-03-22T09:24:01;14.77;;;13.43;;
1837;SDS011;918;50.796;6.772;2024-03-22T09:26:28;16.50;;;15.00;;
1837;SDS011;918;50.796;6.772;2024-03-22T09:28:53;15.73;;;14.40;;
1837;SDS011;918;50.796;6.772;2024-03-22T09:31:18;16.17;;;14.70;;
1837;SDS011;918;50.796;6.772;2024-03-22T09:33:44;16.60;;;14.87;;
1837;SDS011;918;50.796;6.772;2024-03-22T09:36:09;14.07;;;12.77;;
1837;SDS011;918;50.796;6.772;2024-03-22T09:38:34;16.63;;;14.83;;
1837;SDS011;918;50.796;6.772;2024-03-22T09:41:00;15.10;;;13.10;;
1837;SDS011;918;50.796;6.772;2024-03-22T09:43:26;13.47;;;12.27;;
1837;SDS011;918;50.796;6.772;2024-03-22T09:45:52;13.00;;;11.90;;
1837;SDS011;918;50.796;6.772;2024-03-22T09:48:18;10.60;;;9.60;;
1837;SDS011;918;50.796;6.772;2024-03-22T09:50:44;10.77;;;9.73;;
1837;SDS011;918;50.796;6.772;2024-03-22T09:53:11;11.20;;;10.20;;
1837;SDS011;918;50.796;6.772;2024-03-22T09:55:37;10.47;;;9.40;;
1837;SDS011;918;50.796;6.772;2024-03-22T09:58:04;9.77;;;8.77;;
1837;SDS011;918;50.796;6.772;2024-03-22T10:00:30;8.53;;;7.73;;
1837;SDS011;918;50.796;6.772;2024-03-22T10:02:56;7.60;;;7.00;;
1837;SDS011;918;50.796;6.772;2024-03-22T10:05:21;7.20;;;6.50;;
1837;SDS011;918;50.796;6.772;2024-03-22T10:07:47;7.50;;;6.63;;
1837;SDS011;918;50.796;6.772;2024-03-22T10:10:12;7.60;;;6.90;;
1837;SDS011;918;50.796;6.772;2024-03-22T10:12:39;6.50;;;5.80;;
1837;SDS011;918;50.796;6.772;2024-03-22T10:15:04;6.20;;;5.37;;
1837;SDS011;918;50.796;6.772;2024-03-22T10:17:30;5.60;;;5.20;;
1837;SDS011;918;50.796;6.772;2024-03-22T10:19:56;6.03;;;5.43;;
1837;SDS011;918;50.796;6.772;2024-03-22T10:22:21;6.10;;;5.60;;
1837;SDS011;918;50.796;6.772;2024-03-22T10:24:46;6.30;;;5.27;;
1837;SDS011;918;50.796;6.772;2024-03-22T10:27:12;6.63;;;5.93;;
1837;SDS011;918;50.796;6.772;2024-03-22T10:29:38;6.70;;;6.00;;
1837;SDS011;918;50.796;6.772;2024-03-22T10:32:04;6.57;;;5.90;;
1837;SDS011;918;50.796;6.772;2024-03-22T10:34:30;6.63;;;5.93;;
1837;SDS011;918;50.796;6.772;2024-03-22T10:36:56;5.73;;;5.30;;
1837;SDS011;918;50.796;6.772;2024-03-22T10:39:22;5.40;;;4.90;;
1837;SDS011;918;50.796;6.772;2024-03-22T10:41:48;5.63;;;5.03;;
1837;SDS011;918;50.796;6.772;2024-03-22T10:44:14;6.27;;;5.70;;
1837;SDS011;918;50.796;6.772;2024-03-22T10:46:43;6.57;;;6.07;;
1837;SDS011;918;50.796;6.772;2024-03-22T10:49:12;6.47;;;5.90;;
1837;SDS011;918;50.796;6.772;2024-03-22T10:51:41;7.37;;;6.67;;
1837;SDS011;918;50.796;6.772;2024-03-22T10:54:08;7.37;;;6.13;;
1837;SDS011;918;50.796;6.772;2024-03-22T10:56:34;7.70;;;6.90;;
1837;SDS011;918;50.796;6.772;2024-03-22T10:59:02;7.30;;;6.70;;
1837;SDS011;918;50.796;6.772;2024-03-22T11:01:28;7.93;;;7.23;;
1837;SDS011;918;50.796;6.772;2024-03-22T11:04:04;9.17;;;8.27;;
1837;SDS011;918;50.796;6.772;2024-03-22T11:06:34;8.33;;;7.63;;
1837;SDS011;918;50.796;6.772;2024-03-22T11:09:02;7.47;;;6.77;;
1837;SDS011;918;50.796;6.772;2024-03-22T11:11:31;6.40;;;5.77;;
1837;SDS011;918;50.796;6.772;2024-03-22T11:14:02;6.70;;;5.43;;
1837;SDS011;918;50.796;6.772;2024-03-22T11:16:27;8.53;;;7.40;;
1837;SDS011;918;50.796;6.772;2024-03-22T11:18:52;6.67;;;6.07;;
1837;SDS011;918;50.796;6.772;2024-03-22T11:21:18;7.50;;;6.80;;
1837;SDS011;918;50.796;6.772;2024-03-22T11:23:46;7.47;;;6.80;;
1837;SDS011;918;50.796;6.772;2024-03-22T11:26:11;6.97;;;6.37;;
1837;SDS011;918;50.796;6.772;2024-03-22T11:28:37;8.17;;;7.43;;
1837;SDS011;918;50.796;6.772;2024-03-22T11:31:03;8.90;;;6.90;;
1837;SDS011;918;50.796;6.772;2024-03-22T11:33:29;8.40;;;7.70;;
1837;SDS011;918;50.796;6.772;2024-03-22T11:35:55;7.57;;;6.87;;
1837;SDS011;918;50.796;6.772;2024-03-22T11:38:23;8.80;;;8.00;;
1837;SDS011;918;50.796;6.772;2024-03-22T11:40:51;8.80;;;7.93;;
1837;SDS011;918;50.796;6.772;2024-03-22T11:43:17;9.63;;;8.20;;
1837;SDS011;918;50.796;6.772;2024-03-22T11:45:43;9.70;;;8.90;;
1837;SDS011;918;50.796;6.772;2024-03-22T11:48:08;8.80;;;8.10;;
1837;SDS011;918;50.796;6.772;2024-03-22T11:50:35;8.87;;;8.10;;
1837;SDS011;918;50.796;6.772;2024-03-22T11:53:02;9.80;;;8.50;;
1837;SDS011;918;50.796;6.772;2024-03-22T11:55:28;9.47;;;8.50;;
1837;SDS011;918;50.796;6.772;2024-03-22T11:57:56;9.13;;;8.33;;
1837;SDS011;918;50.796;6.772;2024-03-22T12:00:22;9.40;;;8.13;;
1837;SDS011;918;50.796;6.772;2024-03-22T12:02:50;9.27;;;8.33;;
1837;SDS011;918;50.796;6.772;2024-03-22T12:05:15;10.07;;;7.50;;
1837;SDS011;918;50.796;6.772;2024-03-22T12:07:42;9.77;;;8.00;;
1837;SDS011;918;50.796;6.772;2024-03-22T12:10:07;10.20;;;9.10;;
1837;SDS011;918;50.796;6.772;2024-03-22T12:12:33;10.10;;;9.10;;
1837;SDS011;918;50.796;6.772;2024-03-22T12:14:58;8.87;;;8.07;;
1837;SDS011;918;50.796;6.772;2024-03-22T12:17:23;9.60;;;8.83;;
1837;SDS011;918;50.796;6.772;2024-03-22T12:19:48;9.53;;;8.57;;
1837;SDS011;918;50.796;6.772;2024-03-22T12:22:14;9.70;;;8.80;;
1837;SDS011;918;50.796;6.772;2024-03-22T12:24:39;9.67;;;8.87;;
1837;SDS011;918;50.796;6.772;2024-03-22T12:27:04;8.40;;;7.60;;
1837;SDS011;918;50.796;6.772;2024-03-22T12:29:33;11.00;;;10.00;;
1837;SDS011;918;50.796;6.772;2024-03-22T12:31:59;12.17;;;10.10;;
1837;SDS011;918;50.796;6.772;2024-03-22T12:34:28;11.63;;;8.83;;
1837;SDS011;918;50.796;6.772;2024-03-22T12:36:58;10.17;;;9.20;;
1837;SDS011;918;50.796;6.772;2024-03-22T12:39:23;10.43;;;9.50;;
1837;SDS011;918;50.796;6.772;2024-03-22T12:41:49;10.00;;;9.13;;
1837;SDS011;918;50.796;6.772;2024-03-22T12:44:14;10.47;;;9.50;;
1837;SDS011;918;50.796;6.772;2024-03-22T12:46:39;14.43;;;10.00;;
1837;SDS011;918;50.796;6.772;2024-03-22T12:49:07;10.70;;;9.60;;
1837;SDS011;918;50.796;6.772;2024-03-22T12:51:33;9.63;;;8.73;;
1837;SDS011;918;50.796;6.772;2024-03-22T12:53:58;10.03;;;9.23;;
1837;SDS011;918;50.796;6.772;2024-03-22T12:56:23;9.23;;;8.47;;
1837;SDS011;918;50.796;6.772;2024-03-22T12:58:48;10.87;;;9.10;;
1837;SDS011;918;50.796;6.772;2024-03-22T13:01:14;8.43;;;7.73;;
1837;SDS011;918;50.796;6.772;2024-03-22T13:03:40;8.70;;;7.73;;
1837;SDS011;918;50.796;6.772;2024-03-22T13:06:05;8.40;;;7.60;;
1837;SDS011;918;50.796;6.772;2024-03-22T13:08:33;7.87;;;7.27;;
1837;SDS011;918;50.796;6.772;2024-03-22T13:10:59;13.40;;;8.40;;
1837;SDS011;918;50.796;6.772;2024-03-22T13:13:24;8.13;;;7.37;;
1837;SDS011;918;50.796;6.772;2024-03-22T13:15:49;10.20;;;8.67;;
1837;SDS011;918;50.796;6.772;2024-03-22T13:18:14;10.07;;;8.27;;
1837;SDS011;918;50.796;6.772;2024-03-22T13:20:40;9.13;;;8.30;;
1837;SDS011;918;50.796;6.772;2024-03-22T13:23:06;8.80;;;8.00;;
1837;SDS011;918;50.796;6.772;2024-03-22T13:25:33;9.90;;;8.90;;
1837;SDS011;918;50.796;6.772;2024-03-22T13:28:00;9.63;;;8.63;;
1837;SDS011;918;50.796;6.772;2024-03-22T13:30:25;9.50;;;8.60;;
1837;SDS011;918;50.796;6.772;2024-03-22T13:32:50;9.73;;;8.73;;
1837;SDS011;918;50.796;6.772;2024-03-22T13:35:16;8.43;;;7.63;;
1837;SDS011;918;50.796;6.772;2024-03-22T13:37:41;10.00;;;7.87;;
1837;SDS011;918;50.796;6.772;2024-03-22T13:40:06;8.80;;;7.70;;
1837;SDS011;918;50.796;6.772;2024-03-22T13:42:32;9.77;;;8.87;;
1837;SDS011;918;50.796;6.772;2024-03-22T13:44:58;9.37;;;8.47;;
1837;SDS011;918;50.796;6.772;2024-03-22T13:47:23;9.23;;;8.30;;
1837;SDS011;918;50.796;6.772;2024-03-22T13:49:50;9.17;;;8.27;;
1837;SDS011;918;50.796;6.772;2024-03-22T13:52:15;9.67;;;8.77;;
1837;SDS011;918;50.796;6.772;2024-03-22T13:54:40;9.10;;;7.53;;
1837;SDS011;918;50.796;6.772;2024-03-22T13:57:06;8.87;;;8.17;;
1837;SDS011;918;50.796;6.772;2024-03-22T13:59:31;9.70;;;8.27;;
1837;SDS011;918;50.796;6.772;2024-03-22T14:01:56;7.93;;;7.10;;
1837;SDS011;918;50.796;6.772;2024-03-22T14:04:22;8.83;;;7.97;;
1837;SDS011;918;50.796;6.772;2024-03-22T14:06:48;11.13;;;9.60;;
1837;SDS011;918;50.796;6.772;2024-03-22T14:09:13;9.27;;;8.37;;
1837;SDS011;918;50.796;6.772;2024-03-22T14:11:40;10.30;;;9.30;;
1837;SDS011;918;50.796;6.772;2024-03-22T14:14:07;11.33;;;9.73;;
1837;SDS011;918;50.796;6.772;2024-03-22T14:16:32;11.07;;;9.97;;
1837;SDS011;918;50.796;6.772;2024-03-22T14:18:58;10.67;;;9.70;;
1837;SDS011;918;50.796;6.772;2024-03-22T14:21:23;11.43;;;10.30;;
1837;SDS011;918;50.796;6.772;2024-03-22T14:23:49;9.50;;;8.70;;
1837;SDS011;918;50.796;6.772;2024-03-22T14:26:15;9.57;;;8.87;;
1837;SDS011;918;50.796;6.772;2024-03-22T14:28:41;11.90;;;10.70;;
1837;SDS011;918;50.796;6.772;2024-03-22T14:31:07;11.73;;;10.60;;
1837;SDS011;918;50.796;6.772;2024-03-22T14:33:38;11.73;;;10.63;;
1837;SDS011;918;50.796;6.772;2024-03-22T14:36:04;12.03;;;10.57;;
1837;SDS011;918;50.796;6.772;2024-03-22T14:38:30;12.37;;;10.90;;
1837;SDS011;918;50.796;6.772;2024-03-22T14:40:56;12.03;;;11.07;;
1837;SDS011;918;50.796;6.772;2024-03-22T14:43:22;12.00;;;10.90;;
1837;SDS011;918;50.796;6.772;2024-03-22T14:45:48;15.20;;;12.77;;
1837;SDS011;918;50.796;6.772;2024-03-22T14:48:14;13.57;;;12.20;;
1837;SDS011;918;50.796;6.772;2024-03-22T14:50:39;14.10;;;12.67;;
1837;SDS011;918;50.796;6.772;2024-03-22T14:53:05;14.20;;;12.83;;
1837;SDS011;918;50.796;6.772;2024-03-22T14:55:30;12.60;;;11.40;;
1837;SDS011;918;50.796;6.772;2024-03-22T14:57:56;13.53;;;12.23;;
1837;SDS011;918;50.796;6.772;2024-03-22T15:00:21;13.13;;;11.93;;
1837;SDS011;918;50.796;6.772;2024-03-22T15:02:46;14.03;;;12.63;;